Data for 09/28/2014

Time Sea-Level Adjusted Pressure Absolute Pressure Temperature Relative Humidity Dew Point   
(mb) (inHg) (mb) (inHg) (C) (F) (%) (C) (F)
00:05 1022 30.18 852 25.16 7.4 45.2 84 4.8 40.6
00:10 1022 30.18 852 25.16 7.5 45.5 83 4.8 40.7
00:15 1022 30.18 852 25.16 7.5 45.6 82 4.7 40.5
00:20 1022 30.18 852 25.16 7.6 45.7 82 4.7 40.5
00:25 1022 30.18 852 25.16 7.5 45.6 83 4.8 40.6
00:30 1022 30.18 852 25.16 7.6 45.7 81 4.6 40.2
00:35 1022 30.18 852 25.16 7.7 45.8 81 4.6 40.2
00:40 1022 30.18 851 25.13 7.7 45.9 80 4.5 40.1
00:45 1022 30.18 851 25.13 7.8 46.1 78 4.3 39.7
00:50 1022 30.18 852 25.16 7.9 46.2 78 4.2 39.6
00:55 1022 30.18 851 25.13 7.9 46.2 78 4.3 39.7
01:00 1022 30.18 852 25.16 7.8 46.1 79 4.4 39.9
01:05 1022 30.18 852 25.16 7.8 46 79 4.4 39.9
01:10 1022 30.18 852 25.16 7.7 45.8 80 4.4 40
01:15 1023 30.21 852 25.16 7.5 45.5 80 4.4 39.9
01:20 1023 30.21 852 25.16 7.5 45.5 80 4.3 39.7
01:25 1023 30.21 852 25.16 7.6 45.6 79 4.2 39.6
01:30 1023 30.21 852 25.16 7.6 45.6 79 4.3 39.7
01:35 1023 30.21 852 25.16 7.5 45.6 80 4.2 39.6
01:40 1023 30.21 852 25.16 7.5 45.5 80 4.2 39.6
01:45 1023 30.21 852 25.16 7.5 45.5 79 4.2 39.5
01:50 1023 30.21 852 25.16 7.5 45.5 79 4.2 39.5
01:55 1023 30.21 852 25.16 7.5 45.5 79 4.1 39.5
02:00 1023 30.21 852 25.16 7.5 45.5 78 4 39.1
02:05 1023 30.21 852 25.16 7.6 45.6 79 4.2 39.5
02:10 1023 30.21 852 25.16 7.5 45.4 80 4.2 39.6
02:15 1023 30.21 852 25.16 7.4 45.4 79 4 39.1
02:20 1023 30.21 852 25.16 7.5 45.4 79 4 39.2
02:25 1023 30.21 852 25.16 7.5 45.4 78 3.9 39
02:30 1023 30.21 852 25.16 7.5 45.5 78 3.8 38.9
02:35 1023 30.21 852 25.16 7.5 45.5 78 3.9 39
02:40 1023 30.21 852 25.16 7.4 45.4 78 3.9 39
02:45 1023 30.21 852 25.16 7.5 45.4 78 3.8 38.9
02:50 1023 30.21 852 25.16 7.5 45.4 77 3.7 38.7
02:55 1023 30.21 852 25.16 7.5 45.5 77 3.8 38.8
03:00 1023 30.21 852 25.16 7.5 45.5 77 3.8 38.8
03:05 1022 30.18 852 25.16 7.5 45.6 76 3.6 38.6
03:10 1022 30.18 852 25.16 7.6 45.6 76 3.6 38.5
03:15 1023 30.21 852 25.16 7.5 45.6 77 3.9 39
03:20 1023 30.21 852 25.16 7.4 45.2 80 4.1 39.4
03:25 1023 30.21 852 25.16 7.2 44.9 80 3.9 39.1
03:30 1023 30.21 852 25.16 7.1 44.8 80 3.9 39
03:35 1023 30.21 852 25.16 7.1 44.7 81 4 39.2
03:40 1023 30.21 852 25.16 7 44.6 82 4.1 39.4
03:45 1023 30.21 852 25.16 7 44.6 81 4 39.2
03:50 1023 30.21 852 25.16 7 44.6 80 3.8 38.8
03:55 1023 30.21 852 25.16 7.1 44.7 80 3.8 38.8
04:00 1022 30.18 852 25.16 7.1 44.7 79 3.7 38.7
04:05 1022 30.18 852 25.16 7.1 44.9 77 3.5 38.2
04:10 1022 30.18 851 25.13 7.2 45 77 3.5 38.3
04:15 1022 30.18 851 25.13 7.3 45.1 77 3.6 38.4
04:20 1022 30.18 851 25.13 7.3 45.1 77 3.5 38.3
04:25 1022 30.18 851 25.13 7.2 45 76 3.4 38.1
04:30 1022 30.18 851 25.13 7.2 44.9 78 3.7 38.6
04:35 1022 30.18 851 25.13 7.1 44.7 79 3.6 38.5
04:40 1022 30.18 851 25.13 7 44.7 78 3.5 38.3
04:45 1022 30.18 851 25.13 7.2 44.9 77 3.4 38.1
04:50 1022 30.18 851 25.13 7.2 44.9 77 3.4 38.1
04:55 1022 30.18 851 25.13 7.1 44.8 78 3.5 38.3
05:00 1022 30.18 851 25.13 7.1 44.8 77 3.3 38
05:05 1022 30.18 851 25.13 7.2 44.9 76 3.3 37.9
05:10 1022 30.18 851 25.13 7.2 45 75 3.2 37.7
05:15 1022 30.18 851 25.13 7.2 45 77 3.4 38.1
05:20 1022 30.18 851 25.13 7.1 44.7 77 3.4 38.1
05:25 1022 30.18 851 25.13 7 44.6 78 3.4 38.2
05:30 1022 30.18 851 25.13 7 44.5 78 3.4 38.1
05:35 1022 30.18 851 25.13 6.9 44.5 78 3.3 38
05:40 1022 30.18 851 25.13 6.9 44.4 78 3.3 37.9
05:45 1022 30.18 851 25.13 6.9 44.5 77 3.2 37.8
05:50 1022 30.18 851 25.13 6.9 44.5 77 3.1 37.6
05:55 1022 30.18 851 25.13 7 44.5 77 3.2 37.8
06:00 1022 30.18 851 25.13 6.9 44.4 78 3.3 37.9
06:05 1022 30.18 851 25.13 6.9 44.4 78 3.3 37.9
06:10 1022 30.18 851 25.13 6.9 44.4 77 3.2 37.8
06:15 1022 30.18 851 25.13 6.8 44.3 78 3.2 37.8
06:20 1022 30.18 851 25.13 6.7 44.1 78 3.3 37.9
06:25 1022 30.18 851 25.13 6.7 44 78 3.2 37.8
06:30 1022 30.18 851 25.13 6.8 44.2 77 3 37.5
06:35 1022 30.18 851 25.13 6.8 44.2 77 3 37.4
06:40 1022 30.18 851 25.13 6.8 44.2 77 3.1 37.6
06:45 1022 30.18 851 25.13 6.7 44.1 78 3.2 37.7
06:50 1022 30.18 851 25.13 6.7 44 78 3.1 37.6
06:55 1022 30.18 851 25.13 6.7 44 78 3.1 37.7
07:00 1022 30.18 851 25.13 6.6 43.9 79 3.2 37.7
07:05 1022 30.18 851 25.13 6.6 43.9 79 3.2 37.8
07:10 1022 30.18 851 25.13 6.6 43.8 79 3.2 37.7
07:15 1022 30.18 851 25.13 6.5 43.7 80 3.3 38
07:20 1022 30.18 851 25.13 6.4 43.5 81 3.4 38.1
07:25 1022 30.18 851 25.13 6.3 43.4 83 3.6 38.6
07:30 1022 30.18 851 25.13 6.2 43.1 84 3.7 38.6
07:35 1022 30.18 851 25.13 6.1 43 84 3.7 38.6
07:40 1022 30.18 851 25.13 6.1 43 84 3.6 38.5
07:45 1022 30.18 851 25.13 6.1 43 83 3.5 38.3
07:50 1022 30.18 851 25.13 6.3 43.3 81 3.3 37.9
07:55 1022 30.18 851 25.13 6.4 43.5 81 3.3 38
08:00 1022 30.18 852 25.16 6.4 43.4 82 3.4 38.2
08:05 1022 30.18 852 25.16 6.3 43.4 81 3.3 38
08:10 1022 30.18 851 25.13 6.4 43.5 80 3.3 37.9
08:15 1022 30.18 851 25.13 6.4 43.6 81 3.4 38.2
08:20 1022 30.18 851 25.13 6.4 43.5 80 3.3 37.9
08:25 1022 30.18 851 25.13 6.4 43.5 82 3.6 38.4
08:30 1022 30.18 851 25.13 6.3 43.3 82 3.4 38.2
08:35 1022 30.18 851 25.13 6.3 43.3 82 3.5 38.2
08:40 1022 30.18 851 25.13 6.3 43.3 82 3.5 38.3
08:45 1022 30.18 851 25.13 6.4 43.4 82 3.5 38.3
08:50 1022 30.18 851 25.13 6.5 43.6 81 3.4 38.2
08:55 1022 30.18 851 25.13 6.6 43.8 80 3.4 38.2
09:00 1022 30.18 851 25.13 6.7 44 80 3.4 38.1
09:05 1022 30.18 851 25.13 6.7 44.1 79 3.3 37.9
09:10 1022 30.18 851 25.13 6.8 44.2 79 3.3 38
09:15 1022 30.18 852 25.16 6.9 44.3 78 3.3 38
09:20 1023 30.21 852 25.16 6.8 44.3 79 3.5 38.2
09:25 1022 30.18 852 25.16 6.8 44.2 80 3.5 38.3
09:30 1022 30.18 852 25.16 6.8 44.2 79 3.4 38.2
09:35 1023 30.21 852 25.16 6.8 44.2 79 3.4 38.1
09:40 1023 30.21 852 25.16 6.8 44.2 80 3.5 38.3
09:45 1023 30.21 852 25.16 6.8 44.2 79 3.5 38.2
09:50 1022 30.18 852 25.16 6.8 44.3 79 3.5 38.3
09:55 1023 30.21 852 25.16 6.9 44.5 79 3.5 38.3
10:00 1023 30.21 852 25.16 7 44.6 78 3.4 38.2
10:05 1023 30.21 852 25.16 7.2 44.9 78 3.5 38.3
10:10 1023 30.21 852 25.16 7.2 45 78 3.7 38.6
10:15 1023 30.21 852 25.16 7.3 45.1 77 3.4 38.2
10:20 1022 30.18 852 25.16 7.3 45.1 77 3.5 38.3
10:25 1022 30.18 852 25.16 7.3 45.1 77 3.5 38.3
10:30 1023 30.21 852 25.16 7.3 45.1 77 3.6 38.5
10:35 1023 30.21 852 25.16 7.4 45.2 77 3.6 38.4
10:40 1023 30.21 852 25.16 7.4 45.2 76 3.5 38.2
10:45 1023 30.21 852 25.16 7.4 45.3 76 3.4 38.1
10:50 1023 30.21 852 25.16 7.5 45.5 76 3.5 38.3
10:55 1023 30.21 852 25.16 7.4 45.2 76 3.5 38.2
11:00 1023 30.21 852 25.16 7.3 45.1 77 3.5 38.3
11:05 1023 30.21 852 25.16 7.3 45.1 77 3.4 38.2
11:10 1023 30.21 852 25.16 7.4 45.2 77 3.5 38.3
11:15 1023 30.21 852 25.16 7.4 45.2 77 3.6 38.5
11:20 1023 30.21 852 25.16 7.2 45 77 3.5 38.3
11:25 1023 30.21 852 25.16 7.2 45 76 3.3 38
11:30 1023 30.21 852 25.16 7.2 45 77 3.4 38.2
11:35 1023 30.21 852 25.16 7.2 44.9 77 3.4 38.1
11:40 1022 30.18 852 25.16 7.1 44.8 77 3.4 38.1
11:45 1023 30.21 852 25.16 7.1 44.8 78 3.5 38.3
11:50 1023 30.21 852 25.16 7 44.7 78 3.4 38.1
11:55 1022 30.18 852 25.16 7.1 44.8 78 3.5 38.3
12:00 1022 30.18 852 25.16 7.1 44.9 78 3.5 38.4
12:05 1022 30.18 852 25.16 7.3 45.1 76 3.4 38
12:10 1022 30.18 852 25.16 7.3 45.1 77 3.6 38.4
12:15 1022 30.18 851 25.13 7.3 45.1 78 3.7 38.6
12:20 1022 30.18 851 25.13 7.3 45.1 77 3.5 38.3
12:25 1022 30.18 851 25.13 7.2 45 78 3.7 38.6
12:30 1022 30.18 851 25.13 7.3 45.1 77 3.6 38.5
12:35 1022 30.18 851 25.13 7.4 45.3 76 3.4 38.1
12:40 1022 30.18 851 25.13 7.4 45.2 76 3.5 38.3
12:45 1022 30.18 851 25.13 7.5 45.4 76 3.5 38.3
12:50 1022 30.18 851 25.13 7.6 45.7 75 3.5 38.3
12:55 1022 30.18 851 25.13 7.6 45.6 76 3.6 38.4
13:00 1022 30.18 851 25.13 7.5 45.5 77 3.7 38.7
13:05 1022 30.18 851 25.13 7.6 45.7 75 3.5 38.4
13:10 1022 30.18 851 25.13 7.6 45.8 75 3.6 38.4
13:15 1022 30.18 851 25.13 7.7 45.9 75 3.6 38.5
13:20 1022 30.18 851 25.13 7.6 45.7 74 3.4 38.1
13:25 1022 30.18 851 25.13 7.6 45.7 75 3.5 38.3
13:30 1022 30.18 851 25.13 7.7 45.8 74 3.3 37.9
13:35 1022 30.18 851 25.13 7.7 45.9 74 3.3 38
13:40 1022 30.18 851 25.13 7.8 46.1 73 3.3 37.9
13:45 1022 30.18 851 25.13 7.8 46 74 3.5 38.3
13:50 1022 30.18 851 25.13 7.8 46 73 3.3 38
13:55 1022 30.18 851 25.13 7.8 46 74 3.4 38.1
14:00 1022 30.18 851 25.13 7.8 46 74 3.5 38.2
14:05 1022 30.18 851 25.13 7.8 46.1 74 3.5 38.3
14:10 1022 30.18 851 25.13 7.9 46.2 73 3.4 38.1
14:15 1022 30.18 851 25.13 7.9 46.3 73 3.4 38.1
14:20 1021 30.15 851 25.13 7.9 46.2 74 3.5 38.3
14:25 1021 30.15 851 25.13 7.8 46.1 73 3.3 38
14:30 1021 30.15 850 25.1 7.8 46 74 3.5 38.3
14:35 1021 30.15 851 25.13 7.8 46.1 73 3.4 38.1
14:40 1021 30.15 851 25.13 7.8 46 74 3.4 38.1
14:45 1021 30.15 851 25.13 7.6 45.7 75 3.4 38.2
14:50 1021 30.15 851 25.13 7.6 45.6 76 3.6 38.4
14:55 1021 30.15 851 25.13 7.5 45.5 76 3.5 38.3
15:00 1021 30.15 850 25.1 7.5 45.5 75 3.4 38.2
15:05 1021 30.15 850 25.1 7.5 45.4 75 3.2 37.8
15:10 1021 30.15 850 25.1 7.5 45.5 75 3.3 37.9
15:15 1021 30.15 850 25.1 7.5 45.6 75 3.5 38.3
15:20 1021 30.15 850 25.1 7.5 45.5 75 3.4 38.1
15:25 1021 30.15 850 25.1 7.5 45.5 74 3.2 37.8
15:30 1021 30.15 850 25.1 7.6 45.6 73 3.1 37.6
15:35 1021 30.15 850 25.1 7.5 45.5 75 3.4 38
15:40 1021 30.15 850 25.1 7.3 45.2 76 3.5 38.3
15:45 1021 30.15 850 25.1 7.2 45 76 3.3 38
15:50 1021 30.15 850 25.1 7.2 44.9 77 3.3 38
15:55 1021 30.15 850 25.1 7.2 45 76 3.3 37.9
16:00 1021 30.15 850 25.1 7.3 45.1 76 3.3 37.9
16:05 1021 30.15 850 25.1 7.3 45.2 75 3.2 37.8
16:10 1021 30.15 850 25.1 7.3 45.1 76 3.3 37.9
16:15 1021 30.15 850 25.1 7.2 45 76 3.3 37.9
16:20 1021 30.15 850 25.1 7.2 44.9 76 3.3 37.9
16:25 1021 30.15 850 25.1 7.2 44.9 76 3.2 37.8
16:30 1021 30.15 850 25.1 7.1 44.7 77 3.2 37.8
16:35 1021 30.15 850 25.1 7 44.6 76 3.1 37.6
16:40 1021 30.15 850 25.1 7 44.6 76 3 37.5
16:45 1021 30.15 850 25.1 7 44.5 76 3.1 37.6
16:50 1021 30.15 850 25.1 6.9 44.4 77 3.1 37.6
16:55 1021 30.15 850 25.1 6.9 44.4 76 3 37.4
17:00 1021 30.15 850 25.1 6.8 44.3 78 3.2 37.7
17:05 1020 30.12 850 25.1 6.7 44.1 78 3.1 37.6
17:10 1020 30.12 850 25.1 6.8 44.2 76 2.9 37.3
17:15 1020 30.12 850 25.1 6.8 44.3 77 3.1 37.6
17:20 1020 30.12 850 25.1 6.8 44.3 77 3.1 37.5
17:25 1021 30.15 850 25.1 6.9 44.4 76 2.9 37.3
17:30 1020 30.12 850 25.1 7 44.6 76 3 37.4
17:35 1020 30.12 849 25.07 7 44.5 76 3 37.4
17:40 1020 30.12 849 25.07 6.9 44.4 77 3.1 37.6
17:45 1020 30.12 849 25.07 6.9 44.4 77 3.1 37.5
17:50 1020 30.12 849 25.07 6.9 44.4 76 3 37.5
17:55 1020 30.12 849 25.07 6.9 44.5 76 3.1 37.5
18:00 1020 30.12 849 25.07 7 44.5 76 3 37.3
18:05 1020 30.12 849 25.07 7 44.7 75 3 37.4
18:10 1020 30.12 849 25.07 7 44.6 76 3 37.5
18:15 1020 30.12 849 25.07 7.1 44.7 75 2.9 37.3
18:20 1020 30.12 849 25.07 7.1 44.8 75 3 37.5
18:25 1020 30.12 849 25.07 7.1 44.8 75 3.1 37.5
18:30 1020 30.12 849 25.07 7.1 44.7 77 3.2 37.8
18:35 1020 30.12 849 25.07 7 44.5 78 3.4 38
18:40 1020 30.12 849 25.07 6.9 44.4 78 3.4 38.1
18:45 1020 30.12 849 25.07 6.9 44.4 78 3.2 37.8
18:50 1020 30.12 849 25.07 6.9 44.5 77 3.3 37.9
18:55 1020 30.12 849 25.07 6.9 44.5 78 3.3 37.9
19:00 1020 30.12 849 25.07 6.8 44.2 79 3.4 38.1
19:05 1020 30.12 849 25.07 6.7 44.1 79 3.3 38
19:10 1020 30.12 849 25.07 6.7 44 79 3.2 37.8
19:15 1019 30.09 849 25.07 6.7 44.1 78 3.1 37.7
19:20 1019 30.09 849 25.07 6.7 44.1 79 3.3 38
19:25 1019 30.09 848 25.04 6.7 44 78 3.2 37.7
19:30 1019 30.09 848 25.04 6.7 44.1 78 3.3 37.9
19:35 1019 30.09 848 25.04 6.7 44.1 78 3.1 37.6
19:40 1019 30.09 848 25.04 6.8 44.3 77 3.2 37.7
19:45 1019 30.09 848 25.04 6.9 44.3 77 3.1 37.6
19:50 1019 30.09 848 25.04 6.8 44.3 78 3.2 37.8
19:55 1019 30.09 848 25.04 6.8 44.2 78 3.2 37.8
20:00 1019 30.09 849 25.07 6.8 44.3 78 3.2 37.8
20:05 1020 30.12 849 25.07 6.9 44.4 77 3.1 37.6
20:10 1020 30.12 849 25.07 7 44.6 77 3.2 37.8
20:15 1020 30.12 849 25.07 7 44.6 77 3.2 37.7
20:20 1020 30.12 849 25.07 7 44.6 76 3.1 37.6
20:25 1020 30.12 849 25.07 7.1 44.7 76 3.2 37.8
20:30 1020 30.12 849 25.07 7.1 44.7 77 3.3 38
20:35 1020 30.12 849 25.07 7.1 44.7 77 3.4 38.1
20:40 1020 30.12 849 25.07 7 44.6 78 3.5 38.3
20:45 1020 30.12 849 25.07 6.9 44.5 79 3.6 38.4
20:50 1020 30.12 849 25.07 6.9 44.4 79 3.6 38.4
20:55 1020 30.12 849 25.07 6.9 44.4 79 3.5 38.3
21:00 1020 30.12 849 25.07 6.9 44.5 79 3.6 38.4
21:05 1020 30.12 849 25.07 6.9 44.5 79 3.6 38.5
21:10 1020 30.12 849 25.07 7 44.6 78 3.5 38.3
21:15 1020 30.12 849 25.07 7.1 44.7 78 3.4 38.2
21:20 1020 30.12 849 25.07 7.2 44.9 77 3.4 38.1
21:25 1020 30.12 849 25.07 7.2 45 77 3.5 38.2
21:30 1020 30.12 849 25.07 7.3 45.1 76 3.4 38.1
21:35 1020 30.12 849 25.07 7.3 45.1 77 3.5 38.3
21:40 1020 30.12 849 25.07 7.2 45 77 3.5 38.3
21:45 1020 30.12 849 25.07 7.2 45 78 3.6 38.5
21:50 1020 30.12 849 25.07 7.2 44.9 78 3.6 38.6
21:55 1020 30.12 849 25.07 7.1 44.8 79 3.7 38.6
22:00 1020 30.12 849 25.07 7.1 44.8 79 3.7 38.7
22:05 1020 30.12 849 25.07 7 44.7 79 3.7 38.7
22:10 1020 30.12 849 25.07 7 44.6 80 3.8 38.8
22:15 1020 30.12 849 25.07 7 44.6 80 3.7 38.7
22:20 1020 30.12 849 25.07 7 44.6 80 3.7 38.7
22:25 1020 30.12 849 25.07 7 44.6 80 3.8 38.8
22:30 1020 30.12 849 25.07 7 44.6 79 3.7 38.7
22:35 1020 30.12 849 25.07 7 44.7 79 3.7 38.7
22:40 1020 30.12 849 25.07 7 44.6 80 3.8 38.8
22:45 1020 30.12 849 25.07 7 44.6 79 3.7 38.6
22:50 1020 30.12 849 25.07 7 44.6 79 3.7 38.6
22:55 1020 30.12 849 25.07 7 44.6 79 3.7 38.7
23:00 1020 30.12 849 25.07 7 44.6 80 3.8 38.8
23:05 1020 30.12 849 25.07 7 44.5 80 3.8 38.8
23:10 1020 30.12 849 25.07 6.9 44.5 81 3.9 39
23:15 1020 30.12 849 25.07 6.9 44.4 81 3.9 38.9
23:20 1020 30.12 849 25.07 6.8 44.3 82 3.9 39
23:25 1020 30.12 849 25.07 6.8 44.2 82 3.9 39
23:30 1020 30.12 849 25.07 6.7 44.1 81 3.8 38.8
23:35 1020 30.12 849 25.07 6.8 44.2 81 3.8 38.8
23:40 1020 30.12 849 25.07 6.7 44.1 81 3.7 38.7
23:45 1020 30.12 849 25.07 6.7 44 82 3.8 38.8
23:50 1019 30.09 849 25.07 6.7 44 82 3.8 38.8
23:55 1020 30.12 849 25.07 6.6 43.9 82 3.7 38.7
24:00 1020 30.12 849 25.07 6.6 44 82 3.7 38.7